sensor_id;sensor_type;location;lat;lon;timestamp;P1;durP1;ratioP1;P2;durP2;ratioP2
67516;SDS011;68821;59.134;37.894;2023-04-19T00:01:21;8.05;;;2.88;;
67516;SDS011;68821;59.134;37.894;2023-04-19T00:03:47;10.55;;;2.85;;
67516;SDS011;68821;59.134;37.894;2023-04-19T00:06:14;9.68;;;2.80;;
67516;SDS011;68821;59.134;37.894;2023-04-19T00:08:40;8.52;;;2.60;;
67516;SDS011;68821;59.134;37.894;2023-04-19T00:11:08;5.70;;;2.22;;
67516;SDS011;68821;59.134;37.894;2023-04-19T00:13:34;7.00;;;2.70;;
67516;SDS011;68821;59.134;37.894;2023-04-19T00:16:01;8.23;;;2.70;;
67516;SDS011;68821;59.134;37.894;2023-04-19T00:18:27;8.70;;;2.67;;
67516;SDS011;68821;59.134;37.894;2023-04-19T00:20:53;5.47;;;2.72;;
67516;SDS011;68821;59.134;37.894;2023-04-19T00:23:19;8.05;;;2.65;;
67516;SDS011;68821;59.134;37.894;2023-04-19T00:25:45;7.43;;;2.60;;
67516;SDS011;68821;59.134;37.894;2023-04-19T00:28:13;8.35;;;2.78;;
67516;SDS011;68821;59.134;37.894;2023-04-19T00:30:40;6.97;;;3.13;;
67516;SDS011;68821;59.134;37.894;2023-04-19T00:33:06;7.95;;;2.65;;
67516;SDS011;68821;59.134;37.894;2023-04-19T00:35:38;6.45;;;2.45;;
67516;SDS011;68821;59.134;37.894;2023-04-19T00:38:06;4.82;;;2.13;;
67516;SDS011;68821;59.134;37.894;2023-04-19T00:40:33;8.35;;;2.42;;
67516;SDS011;68821;59.134;37.894;2023-04-19T00:42:59;6.88;;;2.45;;
67516;SDS011;68821;59.134;37.894;2023-04-19T00:45:25;8.25;;;2.40;;
67516;SDS011;68821;59.134;37.894;2023-04-19T00:47:52;7.80;;;1.98;;
67516;SDS011;68821;59.134;37.894;2023-04-19T00:50:18;4.88;;;2.17;;
67516;SDS011;68821;59.134;37.894;2023-04-19T00:52:45;6.15;;;2.22;;
67516;SDS011;68821;59.134;37.894;2023-04-19T00:55:11;7.15;;;2.60;;
67516;SDS011;68821;59.134;37.894;2023-04-19T00:57:38;5.70;;;2.13;;
67516;SDS011;68821;59.134;37.894;2023-04-19T01:00:05;6.22;;;2.10;;
67516;SDS011;68821;59.134;37.894;2023-04-19T01:02:33;4.75;;;2.25;;
67516;SDS011;68821;59.134;37.894;2023-04-19T01:04:59;9.80;;;2.10;;
67516;SDS011;68821;59.134;37.894;2023-04-19T01:07:26;6.63;;;2.47;;
67516;SDS011;68821;59.134;37.894;2023-04-19T01:09:52;6.50;;;2.45;;
67516;SDS011;68821;59.134;37.894;2023-04-19T01:12:18;6.13;;;2.22;;
67516;SDS011;68821;59.134;37.894;2023-04-19T01:14:45;7.85;;;2.80;;
67516;SDS011;68821;59.134;37.894;2023-04-19T01:17:11;9.40;;;2.20;;
67516;SDS011;68821;59.134;37.894;2023-04-19T01:19:40;9.27;;;2.92;;
67516;SDS011;68821;59.134;37.894;2023-04-19T01:22:06;10.10;;;3.17;;
67516;SDS011;68821;59.134;37.894;2023-04-19T01:24:33;6.55;;;2.78;;
67516;SDS011;68821;59.134;37.894;2023-04-19T01:26:59;6.93;;;2.80;;
67516;SDS011;68821;59.134;37.894;2023-04-19T01:29:26;6.70;;;2.75;;
67516;SDS011;68821;59.134;37.894;2023-04-19T01:31:53;6.57;;;2.38;;
67516;SDS011;68821;59.134;37.894;2023-04-19T01:34:19;6.75;;;2.33;;
67516;SDS011;68821;59.134;37.894;2023-04-19T01:36:45;9.25;;;2.65;;
67516;SDS011;68821;59.134;37.894;2023-04-19T01:39:12;5.75;;;2.35;;
67516;SDS011;68821;59.134;37.894;2023-04-19T01:41:38;5.10;;;1.95;;
67516;SDS011;68821;59.134;37.894;2023-04-19T01:44:04;7.45;;;2.10;;
67516;SDS011;68821;59.134;37.894;2023-04-19T01:46:30;7.05;;;3.10;;
67516;SDS011;68821;59.134;37.894;2023-04-19T01:48:58;5.60;;;2.20;;
67516;SDS011;68821;59.134;37.894;2023-04-19T01:51:24;5.57;;;2.30;;
67516;SDS011;68821;59.134;37.894;2023-04-19T01:53:51;6.05;;;2.00;;
67516;SDS011;68821;59.134;37.894;2023-04-19T01:56:19;4.30;;;1.70;;
67516;SDS011;68821;59.134;37.894;2023-04-19T01:58:46;5.50;;;2.17;;
67516;SDS011;68821;59.134;37.894;2023-04-19T02:01:12;5.20;;;2.10;;
67516;SDS011;68821;59.134;37.894;2023-04-19T02:03:38;5.13;;;1.98;;
67516;SDS011;68821;59.134;37.894;2023-04-19T02:06:05;5.10;;;1.88;;
67516;SDS011;68821;59.134;37.894;2023-04-19T02:08:36;7.88;;;2.33;;
67516;SDS011;68821;59.134;37.894;2023-04-19T02:11:07;8.25;;;2.50;;
67516;SDS011;68821;59.134;37.894;2023-04-19T02:13:40;5.55;;;2.13;;
67516;SDS011;68821;59.134;37.894;2023-04-19T02:16:07;5.93;;;2.55;;
67516;SDS011;68821;59.134;37.894;2023-04-19T02:18:34;14.27;;;2.65;;
67516;SDS011;68821;59.134;37.894;2023-04-19T02:21:04;9.23;;;2.97;;
67516;SDS011;68821;59.134;37.894;2023-04-19T02:23:30;8.30;;;1.90;;
67516;SDS011;68821;59.134;37.894;2023-04-19T02:25:57;9.27;;;2.40;;
67516;SDS011;68821;59.134;37.894;2023-04-19T02:28:23;10.65;;;2.42;;
67516;SDS011;68821;59.134;37.894;2023-04-19T02:30:49;9.95;;;2.58;;
67516;SDS011;68821;59.134;37.894;2023-04-19T02:33:16;6.35;;;2.13;;
67516;SDS011;68821;59.134;37.894;2023-04-19T02:35:42;9.25;;;3.53;;
67516;SDS011;68821;59.134;37.894;2023-04-19T02:38:08;5.97;;;3.13;;
67516;SDS011;68821;59.134;37.894;2023-04-19T02:40:34;24.52;;;3.67;;
67516;SDS011;68821;59.134;37.894;2023-04-19T02:43:02;8.05;;;2.67;;
67516;SDS011;68821;59.134;37.894;2023-04-19T02:45:28;11.43;;;2.80;;
67516;SDS011;68821;59.134;37.894;2023-04-19T02:47:55;6.85;;;2.10;;
67516;SDS011;68821;59.134;37.894;2023-04-19T02:50:21;10.55;;;2.40;;
67516;SDS011;68821;59.134;37.894;2023-04-19T02:52:47;11.77;;;3.13;;
67516;SDS011;68821;59.134;37.894;2023-04-19T02:55:13;12.38;;;2.13;;
67516;SDS011;68821;59.134;37.894;2023-04-19T02:57:39;6.97;;;2.13;;
67516;SDS011;68821;59.134;37.894;2023-04-19T03:00:05;12.70;;;2.70;;
67516;SDS011;68821;59.134;37.894;2023-04-19T03:02:33;8.57;;;2.30;;
67516;SDS011;68821;59.134;37.894;2023-04-19T03:04:59;9.20;;;2.33;;
67516;SDS011;68821;59.134;37.894;2023-04-19T03:07:25;9.23;;;2.85;;
67516;SDS011;68821;59.134;37.894;2023-04-19T03:09:51;7.85;;;2.17;;
67516;SDS011;68821;59.134;37.894;2023-04-19T03:12:17;8.02;;;2.30;;
67516;SDS011;68821;59.134;37.894;2023-04-19T03:14:43;8.95;;;2.38;;
67516;SDS011;68821;59.134;37.894;2023-04-19T03:17:10;8.63;;;2.78;;
67516;SDS011;68821;59.134;37.894;2023-04-19T03:19:36;13.57;;;2.55;;
67516;SDS011;68821;59.134;37.894;2023-04-19T03:22:02;7.22;;;2.50;;
67516;SDS011;68821;59.134;37.894;2023-04-19T03:24:28;10.30;;;2.53;;
67516;SDS011;68821;59.134;37.894;2023-04-19T03:26:55;7.63;;;2.65;;
67516;SDS011;68821;59.134;37.894;2023-04-19T03:29:22;9.50;;;2.60;;
67516;SDS011;68821;59.134;37.894;2023-04-19T03:31:48;12.55;;;3.17;;
67516;SDS011;68821;59.134;37.894;2023-04-19T03:34:15;9.45;;;2.28;;
67516;SDS011;68821;59.134;37.894;2023-04-19T03:36:41;11.48;;;2.22;;
67516;SDS011;68821;59.134;37.894;2023-04-19T03:39:07;10.10;;;2.60;;
67516;SDS011;68821;59.134;37.894;2023-04-19T03:41:33;9.70;;;2.25;;
67516;SDS011;68821;59.134;37.894;2023-04-19T03:43:59;10.45;;;2.97;;
67516;SDS011;68821;59.134;37.894;2023-04-19T03:46:26;6.43;;;2.75;;
67516;SDS011;68821;59.134;37.894;2023-04-19T03:48:56;10.52;;;3.17;;
67516;SDS011;68821;59.134;37.894;2023-04-19T03:51:22;6.10;;;2.70;;
67516;SDS011;68821;59.134;37.894;2023-04-19T03:53:48;7.63;;;2.80;;
67516;SDS011;68821;59.134;37.894;2023-04-19T03:56:14;8.57;;;2.83;;
67516;SDS011;68821;59.134;37.894;2023-04-19T03:58:40;8.98;;;3.05;;
67516;SDS011;68821;59.134;37.894;2023-04-19T04:01:06;5.43;;;2.22;;
67516;SDS011;68821;59.134;37.894;2023-04-19T04:03:33;5.95;;;2.80;;
67516;SDS011;68821;59.134;37.894;2023-04-19T04:05:59;7.43;;;2.50;;
67516;SDS011;68821;59.134;37.894;2023-04-19T04:08:25;7.25;;;2.67;;
67516;SDS011;68821;59.134;37.894;2023-04-19T04:10:53;8.13;;;2.83;;
67516;SDS011;68821;59.134;37.894;2023-04-19T04:13:19;12.10;;;2.35;;
67516;SDS011;68821;59.134;37.894;2023-04-19T04:15:45;13.18;;;3.33;;
67516;SDS011;68821;59.134;37.894;2023-04-19T04:18:11;8.48;;;3.03;;
67516;SDS011;68821;59.134;37.894;2023-04-19T04:20:37;9.55;;;3.17;;
67516;SDS011;68821;59.134;37.894;2023-04-19T04:23:03;16.23;;;3.92;;
67516;SDS011;68821;59.134;37.894;2023-04-19T04:25:29;12.85;;;4.00;;
67516;SDS011;68821;59.134;37.894;2023-04-19T04:28:02;12.27;;;3.25;;
67516;SDS011;68821;59.134;37.894;2023-04-19T04:30:29;16.33;;;3.85;;
67516;SDS011;68821;59.134;37.894;2023-04-19T04:32:55;25.70;;;5.00;;
67516;SDS011;68821;59.134;37.894;2023-04-19T04:35:24;18.02;;;4.32;;
67516;SDS011;68821;59.134;37.894;2023-04-19T04:37:50;24.00;;;3.38;;
67516;SDS011;68821;59.134;37.894;2023-04-19T04:40:18;23.48;;;3.60;;
67516;SDS011;68821;59.134;37.894;2023-04-19T04:42:45;18.65;;;4.50;;
67516;SDS011;68821;59.134;37.894;2023-04-19T04:45:14;19.90;;;5.18;;
67516;SDS011;68821;59.134;37.894;2023-04-19T04:47:42;22.25;;;4.63;;
67516;SDS011;68821;59.134;37.894;2023-04-19T04:50:10;20.48;;;5.15;;
67516;SDS011;68821;59.134;37.894;2023-04-19T04:52:36;27.73;;;5.68;;
67516;SDS011;68821;59.134;37.894;2023-04-19T04:55:03;22.60;;;5.45;;
67516;SDS011;68821;59.134;37.894;2023-04-19T04:57:29;44.80;;;6.05;;
67516;SDS011;68821;59.134;37.894;2023-04-19T04:59:55;17.98;;;4.40;;
67516;SDS011;68821;59.134;37.894;2023-04-19T05:02:21;15.15;;;4.00;;
67516;SDS011;68821;59.134;37.894;2023-04-19T05:04:48;17.38;;;3.47;;
67516;SDS011;68821;59.134;37.894;2023-04-19T05:07:14;15.45;;;3.97;;
67516;SDS011;68821;59.134;37.894;2023-04-19T05:09:40;10.20;;;3.60;;
67516;SDS011;68821;59.134;37.894;2023-04-19T05:12:06;18.85;;;5.45;;
67516;SDS011;68821;59.134;37.894;2023-04-19T05:14:32;22.20;;;3.85;;
67516;SDS011;68821;59.134;37.894;2023-04-19T05:16:59;15.07;;;3.47;;
67516;SDS011;68821;59.134;37.894;2023-04-19T05:19:25;17.70;;;3.88;;
67516;SDS011;68821;59.134;37.894;2023-04-19T05:21:51;16.83;;;4.82;;
67516;SDS011;68821;59.134;37.894;2023-04-19T05:24:17;33.85;;;4.78;;
67516;SDS011;68821;59.134;37.894;2023-04-19T05:26:43;13.73;;;4.70;;
67516;SDS011;68821;59.134;37.894;2023-04-19T05:29:09;31.33;;;3.92;;
67516;SDS011;68821;59.134;37.894;2023-04-19T05:31:35;16.08;;;4.43;;
67516;SDS011;68821;59.134;37.894;2023-04-19T05:34:01;33.90;;;4.78;;
67516;SDS011;68821;59.134;37.894;2023-04-19T05:36:27;19.55;;;4.30;;
67516;SDS011;68821;59.134;37.894;2023-04-19T05:38:54;15.85;;;3.95;;
67516;SDS011;68821;59.134;37.894;2023-04-19T05:41:20;10.90;;;3.38;;
67516;SDS011;68821;59.134;37.894;2023-04-19T05:43:46;14.13;;;3.60;;
67516;SDS011;68821;59.134;37.894;2023-04-19T05:46:12;10.15;;;3.38;;
67516;SDS011;68821;59.134;37.894;2023-04-19T05:48:38;10.55;;;3.40;;
67516;SDS011;68821;59.134;37.894;2023-04-19T05:51:04;14.27;;;3.83;;
67516;SDS011;68821;59.134;37.894;2023-04-19T05:53:30;13.18;;;3.17;;
67516;SDS011;68821;59.134;37.894;2023-04-19T05:55:56;29.42;;;3.72;;
67516;SDS011;68821;59.134;37.894;2023-04-19T05:58:22;12.75;;;3.80;;
67516;SDS011;68821;59.134;37.894;2023-04-19T06:00:50;14.35;;;3.90;;
67516;SDS011;68821;59.134;37.894;2023-04-19T06:03:16;13.65;;;3.47;;
67516;SDS011;68821;59.134;37.894;2023-04-19T06:05:42;10.57;;;3.30;;
67516;SDS011;68821;59.134;37.894;2023-04-19T06:08:08;12.35;;;3.15;;
67516;SDS011;68821;59.134;37.894;2023-04-19T06:10:35;14.07;;;3.05;;
67516;SDS011;68821;59.134;37.894;2023-04-19T06:13:02;13.25;;;3.25;;
67516;SDS011;68821;59.134;37.894;2023-04-19T06:15:28;6.78;;;2.65;;
67516;SDS011;68821;59.134;37.894;2023-04-19T06:17:55;13.10;;;3.08;;
67516;SDS011;68821;59.134;37.894;2023-04-19T06:20:21;11.25;;;2.67;;
67516;SDS011;68821;59.134;37.894;2023-04-19T06:22:47;7.43;;;2.40;;
67516;SDS011;68821;59.134;37.894;2023-04-19T06:25:13;15.32;;;2.97;;
67516;SDS011;68821;59.134;37.894;2023-04-19T06:27:39;8.35;;;2.22;;
67516;SDS011;68821;59.134;37.894;2023-04-19T06:30:06;6.68;;;2.65;;
67516;SDS011;68821;59.134;37.894;2023-04-19T06:32:32;10.05;;;2.83;;
67516;SDS011;68821;59.134;37.894;2023-04-19T06:34:58;5.93;;;2.03;;
67516;SDS011;68821;59.134;37.894;2023-04-19T06:37:24;8.63;;;3.22;;
67516;SDS011;68821;59.134;37.894;2023-04-19T06:39:51;8.98;;;2.42;;
67516;SDS011;68821;59.134;37.894;2023-04-19T06:42:17;7.25;;;2.58;;
67516;SDS011;68821;59.134;37.894;2023-04-19T06:44:44;9.77;;;2.75;;
67516;SDS011;68821;59.134;37.894;2023-04-19T06:47:10;11.43;;;3.08;;
67516;SDS011;68821;59.134;37.894;2023-04-19T06:49:36;8.75;;;2.58;;
67516;SDS011;68821;59.134;37.894;2023-04-19T06:52:03;11.93;;;2.50;;
67516;SDS011;68821;59.134;37.894;2023-04-19T06:54:29;16.38;;;2.65;;
67516;SDS011;68821;59.134;37.894;2023-04-19T06:56:55;12.77;;;2.47;;
67516;SDS011;68821;59.134;37.894;2023-04-19T06:59:21;11.95;;;2.70;;
67516;SDS011;68821;59.134;37.894;2023-04-19T07:01:47;10.02;;;2.85;;
67516;SDS011;68821;59.134;37.894;2023-04-19T07:04:16;9.27;;;2.70;;
67516;SDS011;68821;59.134;37.894;2023-04-19T07:06:42;9.13;;;2.85;;
67516;SDS011;68821;59.134;37.894;2023-04-19T07:09:08;9.15;;;2.75;;
67516;SDS011;68821;59.134;37.894;2023-04-19T07:11:35;9.98;;;2.85;;
67516;SDS011;68821;59.134;37.894;2023-04-19T07:14:01;12.80;;;2.70;;
67516;SDS011;68821;59.134;37.894;2023-04-19T07:16:27;12.18;;;3.38;;
67516;SDS011;68821;59.134;37.894;2023-04-19T07:18:53;11.73;;;2.78;;
67516;SDS011;68821;59.134;37.894;2023-04-19T07:21:20;11.07;;;2.75;;
67516;SDS011;68821;59.134;37.894;2023-04-19T07:23:46;15.73;;;2.47;;
67516;SDS011;68821;59.134;37.894;2023-04-19T07:26:12;10.30;;;2.20;;
67516;SDS011;68821;59.134;37.894;2023-04-19T07:28:39;12.23;;;2.83;;
67516;SDS011;68821;59.134;37.894;2023-04-19T07:31:05;30.10;;;3.17;;
67516;SDS011;68821;59.134;37.894;2023-04-19T07:33:31;21.77;;;2.97;;
67516;SDS011;68821;59.134;37.894;2023-04-19T07:35:58;21.85;;;3.20;;
67516;SDS011;68821;59.134;37.894;2023-04-19T07:38:24;9.13;;;2.40;;
67516;SDS011;68821;59.134;37.894;2023-04-19T07:40:50;13.48;;;2.47;;
67516;SDS011;68821;59.134;37.894;2023-04-19T07:43:16;19.42;;;3.00;;
67516;SDS011;68821;59.134;37.894;2023-04-19T07:45:42;13.77;;;2.70;;
67516;SDS011;68821;59.134;37.894;2023-04-19T07:48:08;14.45;;;2.60;;
67516;SDS011;68821;59.134;37.894;2023-04-19T07:50:35;11.05;;;2.70;;
67516;SDS011;68821;59.134;37.894;2023-04-19T07:53:01;14.43;;;3.40;;
67516;SDS011;68821;59.134;37.894;2023-04-19T07:55:28;11.57;;;2.35;;
67516;SDS011;68821;59.134;37.894;2023-04-19T07:57:54;4.72;;;1.67;;
67516;SDS011;68821;59.134;37.894;2023-04-19T08:00:20;6.57;;;1.95;;
67516;SDS011;68821;59.134;37.894;2023-04-19T08:02:46;7.65;;;2.20;;
67516;SDS011;68821;59.134;37.894;2023-04-19T08:07:43;29.13;;;3.67;;
67516;SDS011;68821;59.134;37.894;2023-04-19T08:10:10;12.70;;;2.33;;
67516;SDS011;68821;59.134;37.894;2023-04-19T08:12:37;7.72;;;1.88;;
67516;SDS011;68821;59.134;37.894;2023-04-19T08:15:05;6.78;;;2.53;;
67516;SDS011;68821;59.134;37.894;2023-04-19T08:17:32;8.55;;;1.70;;
67516;SDS011;68821;59.134;37.894;2023-04-19T08:19:59;10.50;;;2.15;;
67516;SDS011;68821;59.134;37.894;2023-04-19T08:22:25;10.63;;;2.90;;
67516;SDS011;68821;59.134;37.894;2023-04-19T08:24:51;23.38;;;2.80;;
67516;SDS011;68821;59.134;37.894;2023-04-19T08:27:18;5.60;;;1.60;;
67516;SDS011;68821;59.134;37.894;2023-04-19T08:29:45;7.18;;;1.88;;
67516;SDS011;68821;59.134;37.894;2023-04-19T08:32:11;7.75;;;1.60;;
67516;SDS011;68821;59.134;37.894;2023-04-19T08:34:38;4.50;;;1.70;;
67516;SDS011;68821;59.134;37.894;2023-04-19T08:37:05;6.85;;;1.70;;
67516;SDS011;68821;59.134;37.894;2023-04-19T08:39:34;8.35;;;2.28;;
67516;SDS011;68821;59.134;37.894;2023-04-19T08:42:04;13.98;;;1.80;;
67516;SDS011;68821;59.134;37.894;2023-04-19T08:44:32;12.95;;;1.77;;
67516;SDS011;68821;59.134;37.894;2023-04-19T08:49:28;10.98;;;1.65;;
67516;SDS011;68821;59.134;37.894;2023-04-19T08:51:58;22.13;;;2.10;;
67516;SDS011;68821;59.134;37.894;2023-04-19T08:54:25;11.07;;;1.63;;
67516;SDS011;68821;59.134;37.894;2023-04-19T08:56:59;14.30;;;1.70;;
67516;SDS011;68821;59.134;37.894;2023-04-19T08:59:27;6.85;;;1.90;;
67516;SDS011;68821;59.134;37.894;2023-04-19T09:02:00;17.35;;;2.67;;
67516;SDS011;68821;59.134;37.894;2023-04-19T09:04:26;7.72;;;1.52;;
67516;SDS011;68821;59.134;37.894;2023-04-19T09:06:53;11.52;;;2.05;;
67516;SDS011;68821;59.134;37.894;2023-04-19T09:09:20;14.80;;;2.30;;
67516;SDS011;68821;59.134;37.894;2023-04-19T09:11:53;20.92;;;2.78;;
67516;SDS011;68821;59.134;37.894;2023-04-19T09:14:20;9.18;;;2.60;;
67516;SDS011;68821;59.134;37.894;2023-04-19T09:16:47;6.00;;;1.40;;
67516;SDS011;68821;59.134;37.894;2023-04-19T09:19:16;3.53;;;1.40;;
67516;SDS011;68821;59.134;37.894;2023-04-19T09:21:42;76.63;;;5.53;;
67516;SDS011;68821;59.134;37.894;2023-04-19T09:24:09;8.82;;;1.67;;
67516;SDS011;68821;59.134;37.894;2023-04-19T09:26:36;5.30;;;1.80;;
67516;SDS011;68821;59.134;37.894;2023-04-19T09:29:06;6.35;;;1.95;;
67516;SDS011;68821;59.134;37.894;2023-04-19T09:31:33;8.50;;;4.68;;
67516;SDS011;68821;59.134;37.894;2023-04-19T09:34:16;6.47;;;1.90;;
67516;SDS011;68821;59.134;37.894;2023-04-19T09:36:43;9.52;;;1.60;;
67516;SDS011;68821;59.134;37.894;2023-04-19T09:41:49;9.25;;;1.60;;
67516;SDS011;68821;59.134;37.894;2023-04-19T09:44:17;25.52;;;2.33;;
67516;SDS011;68821;59.134;37.894;2023-04-19T09:46:44;25.40;;;2.78;;
67516;SDS011;68821;59.134;37.894;2023-04-19T09:51:41;9.88;;;1.92;;
67516;SDS011;68821;59.134;37.894;2023-04-19T09:54:09;4.80;;;1.83;;
67516;SDS011;68821;59.134;37.894;2023-04-19T09:56:36;8.85;;;2.28;;
67516;SDS011;68821;59.134;37.894;2023-04-19T09:59:03;25.10;;;2.70;;
67516;SDS011;68821;59.134;37.894;2023-04-19T10:01:34;8.57;;;2.10;;
67516;SDS011;68821;59.134;37.894;2023-04-19T10:04:03;5.68;;;1.73;;
67516;SDS011;68821;59.134;37.894;2023-04-19T10:06:34;5.72;;;1.80;;
67516;SDS011;68821;59.134;37.894;2023-04-19T10:09:01;4.82;;;1.70;;
67516;SDS011;68821;59.134;37.894;2023-04-19T10:11:32;6.85;;;1.92;;
67516;SDS011;68821;59.134;37.894;2023-04-19T10:14:09;11.65;;;2.45;;
67516;SDS011;68821;59.134;37.894;2023-04-19T10:16:36;8.32;;;1.55;;
67516;SDS011;68821;59.134;37.894;2023-04-19T10:19:05;18.80;;;2.50;;
67516;SDS011;68821;59.134;37.894;2023-04-19T10:21:33;26.33;;;2.60;;
67516;SDS011;68821;59.134;37.894;2023-04-19T10:24:01;4.53;;;2.03;;
67516;SDS011;68821;59.134;37.894;2023-04-19T10:26:28;12.07;;;1.95;;
67516;SDS011;68821;59.134;37.894;2023-04-19T10:28:55;16.33;;;2.55;;
67516;SDS011;68821;59.134;37.894;2023-04-19T10:31:25;16.40;;;2.53;;
67516;SDS011;68821;59.134;37.894;2023-04-19T10:33:51;16.50;;;3.85;;
67516;SDS011;68821;59.134;37.894;2023-04-19T10:36:19;14.48;;;2.15;;
67516;SDS011;68821;59.134;37.894;2023-04-19T10:38:49;11.50;;;2.35;;
67516;SDS011;68821;59.134;37.894;2023-04-19T10:41:55;13.57;;;2.50;;
67516;SDS011;68821;59.134;37.894;2023-04-19T10:44:21;11.43;;;1.75;;
67516;SDS011;68821;59.134;37.894;2023-04-19T10:46:48;13.32;;;2.42;;
67516;SDS011;68821;59.134;37.894;2023-04-19T10:49:14;12.60;;;2.50;;
67516;SDS011;68821;59.134;37.894;2023-04-19T10:51:41;3.67;;;1.35;;
67516;SDS011;68821;59.134;37.894;2023-04-19T10:54:31;5.20;;;1.70;;
67516;SDS011;68821;59.134;37.894;2023-04-19T10:57:02;14.50;;;1.90;;
67516;SDS011;68821;59.134;37.894;2023-04-19T10:59:30;16.45;;;3.35;;
67516;SDS011;68821;59.134;37.894;2023-04-19T11:02:02;27.85;;;3.13;;
67516;SDS011;68821;59.134;37.894;2023-04-19T11:07:06;11.88;;;2.58;;
67516;SDS011;68821;59.134;37.894;2023-04-19T11:09:34;11.30;;;2.20;;
67516;SDS011;68821;59.134;37.894;2023-04-19T11:12:23;10.50;;;1.88;;
67516;SDS011;68821;59.134;37.894;2023-04-19T11:14:53;7.78;;;1.83;;
67516;SDS011;68821;59.134;37.894;2023-04-19T11:17:28;6.03;;;1.45;;
67516;SDS011;68821;59.134;37.894;2023-04-19T11:19:57;5.68;;;1.80;;
67516;SDS011;68821;59.134;37.894;2023-04-19T11:27:44;20.05;;;2.67;;
67516;SDS011;68821;59.134;37.894;2023-04-19T11:30:15;10.98;;;1.95;;
67516;SDS011;68821;59.134;37.894;2023-04-19T11:32:45;13.85;;;2.83;;
67516;SDS011;68821;59.134;37.894;2023-04-19T11:35:11;20.63;;;2.15;;
67516;SDS011;68821;59.134;37.894;2023-04-19T11:37:38;10.90;;;2.50;;
67516;SDS011;68821;59.134;37.894;2023-04-19T11:40:07;30.75;;;4.25;;
67516;SDS011;68821;59.134;37.894;2023-04-19T11:42:34;27.80;;;2.50;;
67516;SDS011;68821;59.134;37.894;2023-04-19T11:45:01;14.98;;;2.45;;
67516;SDS011;68821;59.134;37.894;2023-04-19T11:47:27;9.70;;;1.63;;
67516;SDS011;68821;59.134;37.894;2023-04-19T11:49:54;5.18;;;1.60;;
67516;SDS011;68821;59.134;37.894;2023-04-19T11:52:21;6.63;;;2.05;;
67516;SDS011;68821;59.134;37.894;2023-04-19T11:54:52;23.90;;;4.03;;
67516;SDS011;68821;59.134;37.894;2023-04-19T11:57:28;11.98;;;2.05;;
67516;SDS011;68821;59.134;37.894;2023-04-19T12:00:05;35.63;;;3.97;;
67516;SDS011;68821;59.134;37.894;2023-04-19T12:02:37;7.63;;;2.30;;
67516;SDS011;68821;59.134;37.894;2023-04-19T12:05:11;20.85;;;2.20;;
67516;SDS011;68821;59.134;37.894;2023-04-19T12:10:29;6.50;;;1.60;;
67516;SDS011;68821;59.134;37.894;2023-04-19T12:12:56;7.13;;;2.28;;
67516;SDS011;68821;59.134;37.894;2023-04-19T12:17:56;11.57;;;2.00;;
67516;SDS011;68821;59.134;37.894;2023-04-19T12:20:32;8.60;;;1.73;;
67516;SDS011;68821;59.134;37.894;2023-04-19T12:22:59;10.27;;;2.20;;
67516;SDS011;68821;59.134;37.894;2023-04-19T12:27:56;7.95;;;1.88;;
67516;SDS011;68821;59.134;37.894;2023-04-19T12:30:22;6.60;;;2.03;;
67516;SDS011;68821;59.134;37.894;2023-04-19T12:35:16;6.32;;;2.25;;
67516;SDS011;68821;59.134;37.894;2023-04-19T12:37:42;6.60;;;2.28;;
67516;SDS011;68821;59.134;37.894;2023-04-19T12:40:09;10.65;;;2.13;;
67516;SDS011;68821;59.134;37.894;2023-04-19T12:42:35;8.65;;;2.00;;
67516;SDS011;68821;59.134;37.894;2023-04-19T12:45:02;24.75;;;3.25;;
67516;SDS011;68821;59.134;37.894;2023-04-19T12:47:28;5.25;;;2.00;;
67516;SDS011;68821;59.134;37.894;2023-04-19T12:49:55;9.45;;;2.30;;
67516;SDS011;68821;59.134;37.894;2023-04-19T12:52:22;8.38;;;2.80;;
67516;SDS011;68821;59.134;37.894;2023-04-19T12:54:48;13.65;;;1.95;;
67516;SDS011;68821;59.134;37.894;2023-04-19T12:57:15;6.15;;;2.05;;
67516;SDS011;68821;59.134;37.894;2023-04-19T12:59:41;9.68;;;2.60;;
67516;SDS011;68821;59.134;37.894;2023-04-19T13:02:07;17.38;;;2.78;;
67516;SDS011;68821;59.134;37.894;2023-04-19T13:04:34;9.07;;;2.03;;
67516;SDS011;68821;59.134;37.894;2023-04-19T13:07:00;21.20;;;2.75;;
67516;SDS011;68821;59.134;37.894;2023-04-19T13:11:53;43.25;;;6.80;;
67516;SDS011;68821;59.134;37.894;2023-04-19T13:14:19;28.90;;;5.20;;
67516;SDS011;68821;59.134;37.894;2023-04-19T13:16:46;18.73;;;3.17;;
67516;SDS011;68821;59.134;37.894;2023-04-19T13:19:12;8.02;;;2.50;;
67516;SDS011;68821;59.134;37.894;2023-04-19T13:21:38;15.95;;;2.45;;
67516;SDS011;68821;59.134;37.894;2023-04-19T13:24:04;18.83;;;3.28;;
67516;SDS011;68821;59.134;37.894;2023-04-19T13:26:31;10.20;;;2.10;;
67516;SDS011;68821;59.134;37.894;2023-04-19T13:28:59;16.17;;;2.75;;
67516;SDS011;68821;59.134;37.894;2023-04-19T13:31:25;23.13;;;2.85;;
67516;SDS011;68821;59.134;37.894;2023-04-19T13:36:18;13.45;;;3.75;;
67516;SDS011;68821;59.134;37.894;2023-04-19T13:38:45;29.02;;;3.88;;
67516;SDS011;68821;59.134;37.894;2023-04-19T13:41:12;26.27;;;4.00;;
67516;SDS011;68821;59.134;37.894;2023-04-19T13:43:38;15.52;;;3.03;;
67516;SDS011;68821;59.134;37.894;2023-04-19T13:46:05;30.73;;;4.18;;
67516;SDS011;68821;59.134;37.894;2023-04-19T13:48:31;12.57;;;2.42;;
67516;SDS011;68821;59.134;37.894;2023-04-19T13:50:57;9.05;;;2.08;;
67516;SDS011;68821;59.134;37.894;2023-04-19T13:55:51;13.30;;;2.33;;
67516;SDS011;68821;59.134;37.894;2023-04-19T13:58:17;9.95;;;2.00;;
67516;SDS011;68821;59.134;37.894;2023-04-19T14:00:44;10.35;;;2.10;;
67516;SDS011;68821;59.134;37.894;2023-04-19T14:03:10;10.60;;;2.78;;
67516;SDS011;68821;59.134;37.894;2023-04-19T14:05:36;7.78;;;2.25;;
67516;SDS011;68821;59.134;37.894;2023-04-19T14:08:02;13.15;;;2.30;;
67516;SDS011;68821;59.134;37.894;2023-04-19T14:10:29;36.72;;;3.47;;
67516;SDS011;68821;59.134;37.894;2023-04-19T14:12:55;34.97;;;3.58;;
67516;SDS011;68821;59.134;37.894;2023-04-19T14:15:21;16.48;;;2.25;;
67516;SDS011;68821;59.134;37.894;2023-04-19T14:17:49;29.95;;;4.18;;
67516;SDS011;68821;59.134;37.894;2023-04-19T14:20:16;12.95;;;2.45;;
67516;SDS011;68821;59.134;37.894;2023-04-19T14:22:44;22.35;;;2.53;;
67516;SDS011;68821;59.134;37.894;2023-04-19T14:25:10;13.52;;;2.40;;
67516;SDS011;68821;59.134;37.894;2023-04-19T14:27:37;19.50;;;2.85;;
67516;SDS011;68821;59.134;37.894;2023-04-19T14:30:04;14.43;;;1.98;;
67516;SDS011;68821;59.134;37.894;2023-04-19T14:32:31;7.30;;;2.10;;
67516;SDS011;68821;59.134;37.894;2023-04-19T14:34:58;12.38;;;2.15;;
67516;SDS011;68821;59.134;37.894;2023-04-19T14:37:29;10.20;;;2.03;;
67516;SDS011;68821;59.134;37.894;2023-04-19T14:39:55;13.20;;;1.90;;
67516;SDS011;68821;59.134;37.894;2023-04-19T14:42:21;4.28;;;1.33;;
67516;SDS011;68821;59.134;37.894;2023-04-19T14:44:49;9.38;;;1.77;;
67516;SDS011;68821;59.134;37.894;2023-04-19T14:47:16;5.78;;;1.60;;
67516;SDS011;68821;59.134;37.894;2023-04-19T14:49:44;12.95;;;2.13;;
67516;SDS011;68821;59.134;37.894;2023-04-19T14:52:10;14.20;;;2.03;;
67516;SDS011;68821;59.134;37.894;2023-04-19T14:54:36;10.23;;;2.20;;
67516;SDS011;68821;59.134;37.894;2023-04-19T14:57:02;4.80;;;2.10;;
67516;SDS011;68821;59.134;37.894;2023-04-19T14:59:29;7.72;;;1.90;;
67516;SDS011;68821;59.134;37.894;2023-04-19T15:01:55;15.82;;;2.10;;
67516;SDS011;68821;59.134;37.894;2023-04-19T15:04:21;10.93;;;2.30;;